createdAt,value
2023-02-15T00:01:11.353Z,83.10
2023-02-15T00:02:43.544Z,82.94
2023-02-15T00:04:17.330Z,82.65
2023-02-15T00:05:49.290Z,82.70
2023-02-15T00:07:21.330Z,82.74
2023-02-15T00:08:53.604Z,82.77
2023-02-15T00:10:25.631Z,82.67
2023-02-15T00:11:57.623Z,82.84
2023-02-15T00:13:29.549Z,83.13
2023-02-15T00:15:01.575Z,83.21
2023-02-15T00:16:34.041Z,83.20
2023-02-15T00:18:06.467Z,83.28
2023-02-15T00:19:38.589Z,82.91
2023-02-15T00:21:14.675Z,82.95
2023-02-15T00:22:46.890Z,83.05
2023-02-15T00:24:20.050Z,83.51
2023-02-15T00:25:53.672Z,83.50
2023-02-15T00:27:25.568Z,83.54
2023-02-15T00:29:00.222Z,83.64
2023-02-15T00:30:32.757Z,83.36
2023-02-15T00:32:05.014Z,83.48
2023-02-15T00:33:38.361Z,83.60
2023-02-15T00:35:10.590Z,83.65
2023-02-15T00:36:43.704Z,83.74
2023-02-15T00:38:15.694Z,83.57
2023-02-15T00:39:47.833Z,83.37
2023-02-15T00:41:19.815Z,83.52
2023-02-15T00:42:51.737Z,83.55
2023-02-15T00:44:23.705Z,83.39
2023-02-15T00:45:55.830Z,83.39
2023-02-15T00:47:27.802Z,83.44
2023-02-15T00:48:59.959Z,83.48
2023-02-15T00:50:31.908Z,83.75
2023-02-15T00:52:03.969Z,83.86
2023-02-15T00:53:36.052Z,83.86
2023-02-15T00:55:08.497Z,83.69
2023-02-15T00:56:40.469Z,83.75
2023-02-15T00:58:13.202Z,83.92
2023-02-15T00:59:45.248Z,83.87
2023-02-15T01:01:19.847Z,83.94
2023-02-15T01:02:51.851Z,83.79
2023-02-15T01:04:23.843Z,83.48
2023-02-15T01:05:55.827Z,83.27
2023-02-15T01:07:30.771Z,83.30
2023-02-15T01:09:03.162Z,83.16
2023-02-15T01:10:35.900Z,83.58
2023-02-15T01:12:08.172Z,83.59
2023-02-15T01:13:40.580Z,83.48
2023-02-15T01:15:12.510Z,83.67
2023-02-15T01:16:44.490Z,83.54
2023-02-15T01:18:16.479Z,83.50
2023-02-15T01:19:48.441Z,83.60
2023-02-15T01:21:22.312Z,83.32
2023-02-15T01:22:55.014Z,82.98
2023-02-15T01:24:27.121Z,83.09
2023-02-15T01:26:03.921Z,83.30
2023-02-15T01:27:36.111Z,83.09
2023-02-15T01:29:08.123Z,82.74
2023-02-15T01:30:40.049Z,82.83
2023-02-15T01:32:12.086Z,83.18
2023-02-15T01:33:44.198Z,83.20
2023-02-15T01:35:16.260Z,83.17
2023-02-15T01:36:48.221Z,83.45
2023-02-15T01:38:20.349Z,83.61
2023-02-15T01:39:52.338Z,83.39
2023-02-15T01:41:24.634Z,83.54
2023-02-15T01:42:57.208Z,83.28
2023-02-15T01:44:48.924Z,83.37
2023-02-15T01:46:24.983Z,83.48
2023-02-15T01:48:05.163Z,83.55
2023-02-15T01:49:37.206Z,83.56
2023-02-15T01:51:09.697Z,83.37
2023-02-15T01:52:49.659Z,83.37
2023-02-15T01:54:33.545Z,83.25
2023-02-15T01:56:12.927Z,83.36
2023-02-15T01:57:46.772Z,83.08
2023-02-15T01:59:22.275Z,83.19
2023-02-15T02:00:55.421Z,83.33
2023-02-15T02:02:28.661Z,83.20
2023-02-15T02:04:20.340Z,83.43
2023-02-15T02:05:52.341Z,83.45
2023-02-15T02:07:28.172Z,83.42
2023-02-15T02:09:00.482Z,83.50
2023-02-15T02:10:32.625Z,83.59
2023-02-15T02:12:04.837Z,83.52
2023-02-15T02:13:36.802Z,83.79
2023-02-15T02:15:09.313Z,83.87
2023-02-15T02:16:53.365Z,83.60
2023-02-15T02:18:25.387Z,83.42
2023-02-15T02:20:22.563Z,83.63
2023-02-15T02:21:57.653Z,83.64
2023-02-15T02:23:40.623Z,83.63
2023-02-15T02:25:34.467Z,83.55
2023-02-15T02:27:25.001Z,83.65
2023-02-15T02:29:08.833Z,83.27
2023-02-15T02:31:05.640Z,83.51
2023-02-15T02:33:02.175Z,83.46
2023-02-15T02:34:52.909Z,83.67
2023-02-15T02:36:39.145Z,83.64
2023-02-15T02:38:23.549Z,83.62
2023-02-15T02:40:09.427Z,83.83
2023-02-15T02:42:02.876Z,83.79
2023-02-15T02:43:37.314Z,83.71
2023-02-15T02:45:25.980Z,83.78
2023-02-15T02:47:03.881Z,83.56
2023-02-15T02:48:36.382Z,83.66
2023-02-15T02:50:17.286Z,83.55
2023-02-15T02:51:59.874Z,83.66
2023-02-15T02:53:32.703Z,83.71
2023-02-15T02:55:29.404Z,83.79
2023-02-15T02:57:05.505Z,83.94
2023-02-15T02:58:42.789Z,83.99
2023-02-15T03:00:17.057Z,83.83
2023-02-15T03:01:57.900Z,83.74
2023-02-15T03:03:53.034Z,83.62
2023-02-15T03:05:28.348Z,83.89
2023-02-15T03:07:03.409Z,83.68
2023-02-15T03:08:43.344Z,83.71
2023-02-15T03:10:15.669Z,83.73
2023-02-15T03:13:24.532Z,83.81
2023-02-15T03:15:08.671Z,83.12
2023-02-15T03:16:41.728Z,82.80
2023-02-15T03:18:13.853Z,82.80
2023-02-15T03:19:47.264Z,82.60
2023-02-15T03:21:23.374Z,82.75
2023-02-15T03:23:16.650Z,82.70
2023-02-15T03:25:24.570Z,82.79
2023-02-15T03:26:57.487Z,82.83
2023-02-15T03:28:43.706Z,82.87
2023-02-15T03:30:17.131Z,83.09
2023-02-15T03:31:52.463Z,83.26
2023-02-15T03:33:25.118Z,83.08
2023-02-15T03:34:57.241Z,82.86
2023-02-15T03:36:35.111Z,83.18
2023-02-15T03:38:09.330Z,83.35
2023-02-15T03:39:51.691Z,83.57
2023-02-15T03:41:26.277Z,83.78
2023-02-15T03:43:08.661Z,83.83
2023-02-15T03:44:58.673Z,83.91
2023-02-15T03:46:41.233Z,83.97
2023-02-15T03:48:13.344Z,83.98
2023-02-15T03:49:54.935Z,84.03
2023-02-15T03:51:35.959Z,84.02
2023-02-15T03:53:10.855Z,84.26
2023-02-15T03:54:48.638Z,84.24
2023-02-15T03:56:20.690Z,84.18
2023-02-15T03:58:11.950Z,84.17
2023-02-15T04:00:02.699Z,84.38
2023-02-15T04:02:10.510Z,84.30
2023-02-15T04:03:46.293Z,84.52
2023-02-15T04:05:18.416Z,84.59
2023-02-15T04:06:50.454Z,84.17
2023-02-15T04:08:42.527Z,84.37
2023-02-15T04:10:33.201Z,84.07
2023-02-15T04:12:05.682Z,84.23
2023-02-15T04:13:37.755Z,84.19
2023-02-15T04:15:32.340Z,84.23
2023-02-15T04:17:06.798Z,83.97
2023-02-15T04:19:01.559Z,84.10
2023-02-15T04:20:51.912Z,84.38
2023-02-15T04:22:42.534Z,84.29
2023-02-15T04:24:33.662Z,84.25
2023-02-15T04:26:06.218Z,84.27
2023-02-15T04:27:38.711Z,84.12
2023-02-15T04:29:10.784Z,84.30
2023-02-15T04:30:42.753Z,84.22
2023-02-15T04:32:14.880Z,84.30
2023-02-15T04:33:46.982Z,84.13
2023-02-15T04:35:19.341Z,84.20
2023-02-15T04:36:51.719Z,84.16
2023-02-15T04:38:24.142Z,83.93
2023-02-15T04:39:56.308Z,84.12
2023-02-15T04:41:28.309Z,84.01
2023-02-15T04:43:00.320Z,84.01
2023-02-15T04:44:32.362Z,83.84
2023-02-15T04:46:04.899Z,84.12
2023-02-15T04:47:37.244Z,84.12
2023-02-15T04:49:10.168Z,83.84
2023-02-15T04:50:42.264Z,83.93
2023-02-15T04:52:14.532Z,83.98
2023-02-15T04:53:46.649Z,83.72
2023-02-15T04:55:21.329Z,83.72
2023-02-15T04:56:53.478Z,84.03
2023-02-15T04:58:25.539Z,84.12
2023-02-15T04:59:58.493Z,84.30
2023-02-15T05:01:30.707Z,84.26
2023-02-15T05:03:02.828Z,84.14
2023-02-15T05:04:34.943Z,84.02
2023-02-15T05:06:07.166Z,83.81
2023-02-15T05:07:42.271Z,83.55
2023-02-15T05:09:14.907Z,83.80
2023-02-15T05:10:49.777Z,83.84
2023-02-15T05:12:22.048Z,83.89
2023-02-15T05:13:54.213Z,83.81
2023-02-15T05:15:26.266Z,83.74
2023-02-15T05:16:59.871Z,83.49
2023-02-15T05:18:31.782Z,83.16
2023-02-15T05:20:04.842Z,83.08
2023-02-15T05:21:37.112Z,83.13
2023-02-15T05:23:09.136Z,83.23
2023-02-15T05:24:59.612Z,83.25
2023-02-15T05:26:50.543Z,83.34
2023-02-15T05:28:24.266Z,83.34
2023-02-15T05:29:56.459Z,83.36
2023-02-15T05:31:28.844Z,83.29
2023-02-15T05:33:01.227Z,83.26
2023-02-15T05:34:33.177Z,83.51
2023-02-15T05:36:06.288Z,83.60
2023-02-15T05:37:38.517Z,83.81
2023-02-15T05:39:10.575Z,83.86
2023-02-15T05:40:42.600Z,83.88
2023-02-15T05:42:14.688Z,83.75
2023-02-15T05:43:46.677Z,83.66
2023-02-15T05:45:19.026Z,83.59
2023-02-15T05:46:50.988Z,83.58
2023-02-15T05:48:25.633Z,83.67
2023-02-15T05:49:57.598Z,83.56
2023-02-15T05:51:29.681Z,83.63
2023-02-15T05:53:01.862Z,83.58
2023-02-15T05:54:33.867Z,83.60
2023-02-15T05:56:08.086Z,83.80
2023-02-15T05:57:40.147Z,83.92
2023-02-15T05:59:12.338Z,83.86
2023-02-15T06:00:44.880Z,83.96
2023-02-15T06:02:17.033Z,83.78
2023-02-15T06:03:49.222Z,83.93
2023-02-15T06:05:21.285Z,83.88
2023-02-15T06:06:53.383Z,83.99
2023-02-15T06:08:25.390Z,83.94
2023-02-15T06:09:57.411Z,83.98
2023-02-15T06:11:29.490Z,83.90
2023-02-15T06:13:01.616Z,83.79
2023-02-15T06:14:33.622Z,83.86
2023-02-15T06:16:06.249Z,83.95
2023-02-15T06:17:38.516Z,84.05
2023-02-15T06:19:10.733Z,84.03
2023-02-15T06:20:42.682Z,83.93
2023-02-15T06:22:17.823Z,83.82
2023-02-15T06:23:49.858Z,83.96
2023-02-15T06:25:22.101Z,83.95
2023-02-15T06:26:54.146Z,84.01
2023-02-15T06:28:26.875Z,83.91
2023-02-15T06:29:59.184Z,84.12
2023-02-15T06:31:31.744Z,84.06
2023-02-15T06:33:03.887Z,84.02
2023-02-15T06:34:35.946Z,84.00
2023-02-15T06:36:08.594Z,83.93
2023-02-15T06:37:40.967Z,84.00
2023-02-15T06:39:12.971Z,84.05
2023-02-15T06:40:45.067Z,84.27
2023-02-15T06:42:19.275Z,84.11
2023-02-15T06:43:54.812Z,84.21
2023-02-15T06:45:26.833Z,84.32
2023-02-15T06:46:58.850Z,84.19
2023-02-15T06:48:30.938Z,84.45
2023-02-15T06:50:04.231Z,84.29
2023-02-15T06:51:36.278Z,84.14
2023-02-15T06:53:08.467Z,84.05
2023-02-15T06:54:40.906Z,84.00
2023-02-15T06:56:13.374Z,83.89
2023-02-15T06:57:45.481Z,84.15
2023-02-15T06:59:17.922Z,84.19
2023-02-15T07:00:50.752Z,84.29
2023-02-15T07:02:22.853Z,84.20
2023-02-15T07:03:54.853Z,84.23
2023-02-15T07:05:32.529Z,84.28
2023-02-15T07:07:05.154Z,84.15
2023-02-15T07:08:38.175Z,84.34
2023-02-15T07:10:10.318Z,84.38
2023-02-15T07:12:00.969Z,84.46
2023-02-15T07:13:37.494Z,84.42
2023-02-15T07:15:15.739Z,84.46
2023-02-15T07:16:47.805Z,84.34
2023-02-15T07:18:20.483Z,84.32
2023-02-15T07:19:52.646Z,84.25
2023-02-15T07:21:24.723Z,84.26
2023-02-15T07:22:56.692Z,83.94
2023-02-15T07:24:28.950Z,83.85
2023-02-15T07:26:01.717Z,83.80
2023-02-15T07:27:34.724Z,83.69
2023-02-15T07:29:06.736Z,83.35
2023-02-15T07:30:38.788Z,83.30
2023-02-15T07:32:10.932Z,83.22
2023-02-15T07:33:42.983Z,83.43
2023-02-15T07:35:14.992Z,83.08
2023-02-15T07:36:47.086Z,83.14
2023-02-15T07:38:19.924Z,83.08
2023-02-15T08:33:40.780Z,69.44
2023-02-15T08:35:12.815Z,68.53
2023-02-15T08:36:46.498Z,68.07
2023-02-15T08:38:18.591Z,67.76
2023-02-15T08:39:51.041Z,67.65
2023-02-15T08:41:31.809Z,67.72
2023-02-15T08:43:03.822Z,67.22
2023-02-15T08:44:35.834Z,67.50
2023-02-15T08:46:08.853Z,67.12
2023-02-15T08:47:41.087Z,67.39
2023-02-15T08:49:18.279Z,67.09
2023-02-15T08:50:50.318Z,67.08
2023-02-15T08:52:22.663Z,66.76
2023-02-15T08:53:57.122Z,66.45
2023-02-15T08:55:29.180Z,66.46
2023-02-15T08:57:01.454Z,65.85
2023-02-15T08:58:33.808Z,66.01
2023-02-15T09:00:06.519Z,64.86
2023-02-15T09:01:38.797Z,65.56
2023-02-15T09:03:10.845Z,65.05
2023-02-15T09:04:42.979Z,65.42
2023-02-15T09:06:15.990Z,65.23
2023-02-15T09:07:48.044Z,65.12
2023-02-15T09:09:20.879Z,64.48
2023-02-15T09:10:56.042Z,64.62
2023-02-15T09:12:28.188Z,65.19
2023-02-15T09:14:03.189Z,64.09
2023-02-15T09:15:35.304Z,64.32
2023-02-15T09:17:07.716Z,63.98
2023-02-15T09:18:40.433Z,62.87
2023-02-15T09:20:12.670Z,62.98
2023-02-15T09:21:44.927Z,62.58
2023-02-15T09:23:26.890Z,63.21
2023-02-15T09:24:59.444Z,61.74
2023-02-15T09:26:33.206Z,62.17
2023-02-15T09:28:05.315Z,62.20
2023-02-15T09:29:37.536Z,62.87
2023-02-15T09:31:11.021Z,62.94
2023-02-15T09:32:43.190Z,61.72
2023-02-15T09:34:19.958Z,61.38
2023-02-15T09:35:51.975Z,61.06
2023-02-15T09:37:24.035Z,61.01
2023-02-15T09:39:05.141Z,61.01
2023-02-15T09:40:43.174Z,60.99
2023-02-15T09:42:30.233Z,60.11
2023-02-15T09:44:16.271Z,59.90
2023-02-15T09:46:27.050Z,60.64
2023-02-15T09:48:20.327Z,60.22
2023-02-15T09:50:17.800Z,59.86
2023-02-15T09:51:56.493Z,59.76
2023-02-15T09:53:31.737Z,59.58
2023-02-15T09:55:48.651Z,58.65
2023-02-15T09:57:36.069Z,57.98
2023-02-15T09:59:32.314Z,58.60
2023-02-15T10:03:00.509Z,58.76
2023-02-15T10:04:53.047Z,57.61
2023-02-15T10:06:30.694Z,57.90
2023-02-15T10:08:22.813Z,58.01
2023-02-15T10:09:57.655Z,57.26
2023-02-15T10:11:59.352Z,56.99
2023-02-15T10:13:43.155Z,56.66
2023-02-15T10:15:53.439Z,56.59
2023-02-15T10:17:28.974Z,57.48
2023-02-15T10:19:15.472Z,55.35
2023-02-15T10:21:00.061Z,55.81
2023-02-15T10:22:38.069Z,56.22
2023-02-15T10:24:28.162Z,55.45
2023-02-15T10:26:15.152Z,55.77
2023-02-15T10:27:49.045Z,55.23
2023-02-15T10:29:25.787Z,55.17
2023-02-15T10:31:18.716Z,55.50
2023-02-15T10:33:05.503Z,56.16
2023-02-15T10:34:52.404Z,55.72
2023-02-15T10:36:24.409Z,56.23
2023-02-15T10:38:08.692Z,55.81
2023-02-15T10:39:55.768Z,54.60
2023-02-15T10:41:47.240Z,54.06
2023-02-15T10:43:44.247Z,53.97
2023-02-15T10:45:52.978Z,54.05
2023-02-15T10:47:56.648Z,53.51
2023-02-15T10:49:47.109Z,54.14
2023-02-15T10:51:49.855Z,54.33
2023-02-15T10:53:44.144Z,53.54
2023-02-15T10:55:42.253Z,53.90
2023-02-15T10:57:38.053Z,53.57
2023-02-15T10:59:54.676Z,53.23
2023-02-15T11:01:34.839Z,53.42
2023-02-15T11:03:18.997Z,52.71
2023-02-15T11:05:37.438Z,53.65
2023-02-15T11:07:33.950Z,52.63
2023-02-15T11:09:11.638Z,52.92
2023-02-15T11:11:00.276Z,53.32
2023-02-15T11:12:33.332Z,54.21
2023-02-15T11:14:29.539Z,52.92
2023-02-15T11:16:07.045Z,52.27
2023-02-15T11:17:43.349Z,52.27
2023-02-15T11:19:25.713Z,53.57
2023-02-15T11:21:18.971Z,53.11
2023-02-15T11:22:54.897Z,52.82
2023-02-15T11:24:29.745Z,52.13
2023-02-15T11:26:04.408Z,52.68
2023-02-15T11:27:36.601Z,52.52
2023-02-15T11:30:54.971Z,52.59
2023-02-15T11:32:34.213Z,51.21
2023-02-15T11:34:13.930Z,50.32
2023-02-15T11:35:54.649Z,51.60
2023-02-15T11:37:50.371Z,50.54
2023-02-15T11:39:26.001Z,50.46
2023-02-15T11:41:16.808Z,50.22
2023-02-15T11:42:52.621Z,51.09
2023-02-15T11:44:44.096Z,51.36
2023-02-15T11:46:16.328Z,51.05
2023-02-15T11:47:48.429Z,50.77
2023-02-15T11:49:31.482Z,50.57
2023-02-15T11:51:04.508Z,50.10
2023-02-15T11:52:37.645Z,49.48
2023-02-15T11:54:10.042Z,49.85
2023-02-15T11:55:44.918Z,49.61
2023-02-15T11:57:40.330Z,49.87
2023-02-15T12:00:48.070Z,49.46
2023-02-15T12:02:23.948Z,48.47
2023-02-15T12:04:00.199Z,49.84
2023-02-15T12:05:32.485Z,50.16
2023-02-15T12:07:26.934Z,49.38
2023-02-15T12:09:01.847Z,49.73
2023-02-15T12:10:38.029Z,50.16
2023-02-15T12:12:34.382Z,49.24
2023-02-15T12:14:13.105Z,49.40
2023-02-15T12:15:51.922Z,50.19
2023-02-15T12:17:29.945Z,50.13
2023-02-15T12:19:03.929Z,49.51
2023-02-15T12:20:36.412Z,50.47
2023-02-15T12:22:25.016Z,50.39
2023-02-15T12:24:05.282Z,50.40
2023-02-15T12:25:41.171Z,50.42
2023-02-15T12:27:17.387Z,50.06
2023-02-15T12:30:47.822Z,48.66
2023-02-15T12:32:26.993Z,49.20
2023-02-15T12:34:03.063Z,48.44
2023-02-15T12:35:37.625Z,49.10
2023-02-15T12:37:21.007Z,49.27
2023-02-15T12:39:12.870Z,49.12
2023-02-15T12:40:59.059Z,49.03
2023-02-15T12:42:44.296Z,48.57
2023-02-15T12:44:21.126Z,48.81
2023-02-15T12:45:53.164Z,49.04
2023-02-15T12:47:29.302Z,48.91
2023-02-15T12:49:20.766Z,49.78
2023-02-15T12:51:06.223Z,49.60
2023-02-15T12:52:38.686Z,48.92
2023-02-15T12:54:31.023Z,49.02
2023-02-15T12:56:08.107Z,48.82
2023-02-15T12:59:28.810Z,47.99
2023-02-15T13:01:13.557Z,47.50
2023-02-15T13:02:54.614Z,47.41
2023-02-15T14:27:30.105Z,48.30
2023-02-15T14:29:41.065Z,49.12
2023-02-15T14:31:15.078Z,49.05
2023-02-15T14:32:51.237Z,48.89
2023-02-15T14:34:40.488Z,48.90
2023-02-15T14:36:17.221Z,48.04
2023-02-15T14:38:17.005Z,47.83
2023-02-15T14:40:15.629Z,48.35
2023-02-15T14:41:54.978Z,48.45
2023-02-15T14:43:42.804Z,48.35
2023-02-15T14:45:24.251Z,48.04
2023-02-15T14:47:09.632Z,50.31
2023-02-15T14:48:53.676Z,50.33
2023-02-15T14:50:32.113Z,50.72
2023-02-15T14:52:09.784Z,51.10
2023-02-15T14:53:43.489Z,51.98
2023-02-15T14:57:03.702Z,51.71
2023-02-15T14:58:35.712Z,51.97
2023-02-15T15:00:35.932Z,53.11
2023-02-15T15:02:07.941Z,52.10
2023-02-15T15:03:50.894Z,52.02
2023-02-15T15:05:36.093Z,52.03
2023-02-15T15:07:13.958Z,52.11
2023-02-15T15:08:45.997Z,52.33
2023-02-15T15:10:18.224Z,52.80
2023-02-15T15:11:53.732Z,53.42
2023-02-15T15:13:31.677Z,52.65
2023-02-15T15:15:05.295Z,52.88
2023-02-15T15:16:37.340Z,53.21
2023-02-15T15:18:10.875Z,53.85
2023-02-15T15:19:52.720Z,53.78
2023-02-15T15:21:49.735Z,53.14
2023-02-15T15:23:34.691Z,53.25
2023-02-15T15:25:34.944Z,53.49
2023-02-15T15:27:37.921Z,53.76
2023-02-15T15:29:09.983Z,53.47
2023-02-15T15:30:42.059Z,54.06
2023-02-15T15:32:21.756Z,53.95
2023-02-15T15:34:09.090Z,53.80
2023-02-15T15:36:20.446Z,53.88
2023-02-15T15:38:13.219Z,54.21
2023-02-15T15:39:45.374Z,54.49
2023-02-15T15:41:43.165Z,54.28
2023-02-15T15:43:34.212Z,54.37
2023-02-15T15:45:32.077Z,54.74
2023-02-15T15:47:28.566Z,54.73
2023-02-15T15:49:11.754Z,55.10
2023-02-15T15:50:44.277Z,56.15
2023-02-15T15:52:19.106Z,56.38
2023-02-15T15:53:54.424Z,56.43
2023-02-15T15:55:29.013Z,57.14
2023-02-15T15:57:05.339Z,58.51
2023-02-15T15:58:38.466Z,59.13
2023-02-15T16:00:32.232Z,59.47
2023-02-15T16:02:09.483Z,60.08
2023-02-15T16:03:54.564Z,60.28
2023-02-15T16:05:26.555Z,60.54
2023-02-15T16:07:00.083Z,60.91
2023-02-15T16:08:31.956Z,61.08
2023-02-15T16:10:18.148Z,61.51
2023-02-15T16:11:55.618Z,61.85
2023-02-15T16:13:28.287Z,62.17
2023-02-15T16:15:03.506Z,62.38
2023-02-15T16:16:35.584Z,62.79
2023-02-15T16:18:07.833Z,63.22
2023-02-15T16:19:41.957Z,63.31
2023-02-15T16:21:22.802Z,63.77
2023-02-15T16:23:12.201Z,63.87
2023-02-15T16:24:57.600Z,64.18
2023-02-15T16:27:08.860Z,64.36
2023-02-15T16:28:41.307Z,64.63
2023-02-15T16:30:22.358Z,64.84
2023-02-15T16:32:01.285Z,64.59
2023-02-15T16:33:40.873Z,64.18
2023-02-15T16:35:18.814Z,64.63
2023-02-15T16:36:52.191Z,64.78
2023-02-15T16:38:54.634Z,65.09
2023-02-15T16:40:26.745Z,65.34
2023-02-15T16:42:03.204Z,65.40
2023-02-15T16:43:35.404Z,65.67
2023-02-15T16:45:17.908Z,65.81
2023-02-15T16:46:53.357Z,65.95
2023-02-15T16:48:26.650Z,66.46
2023-02-15T16:50:01.502Z,66.64
2023-02-15T16:51:37.034Z,66.40
2023-02-15T16:53:21.251Z,66.14
2023-02-15T16:55:01.738Z,66.37
2023-02-15T16:56:34.407Z,66.90
2023-02-15T16:58:13.034Z,67.54
2023-02-15T16:59:48.329Z,67.38
2023-02-15T17:01:24.386Z,67.88
2023-02-15T17:03:06.210Z,67.86
2023-02-15T17:04:40.473Z,67.96
2023-02-15T17:06:30.871Z,68.12
2023-02-15T17:08:28.071Z,68.08
2023-02-15T17:10:00.959Z,68.65
2023-02-15T17:11:36.530Z,68.87
2023-02-15T17:13:18.964Z,68.77
2023-02-15T17:14:55.915Z,69.06
2023-02-15T17:16:30.878Z,69.04
2023-02-15T17:18:21.314Z,69.25
2023-02-15T17:19:55.171Z,69.66
2023-02-15T17:21:35.160Z,69.54
2023-02-15T17:23:07.329Z,70.04
2023-02-15T17:24:42.065Z,70.18
2023-02-15T17:26:21.108Z,70.16
2023-02-15T17:27:57.209Z,70.20
2023-02-15T17:29:36.520Z,70.55
2023-02-15T17:31:09.721Z,70.78
2023-02-15T17:32:54.535Z,70.60
2023-02-15T17:34:47.100Z,71.01
2023-02-15T17:36:23.912Z,71.19
2023-02-15T17:38:05.120Z,71.36
2023-02-15T17:39:37.136Z,71.60
2023-02-15T17:41:10.165Z,71.44
2023-02-15T17:42:42.339Z,71.67
2023-02-15T17:44:16.655Z,71.79
2023-02-15T17:45:51.242Z,71.83
2023-02-15T17:47:25.965Z,71.87
2023-02-15T17:48:58.093Z,72.19
2023-02-15T17:50:30.216Z,72.16
2023-02-15T17:52:02.955Z,72.39
2023-02-15T17:53:35.035Z,72.51
2023-02-15T17:55:33.782Z,72.61
2023-02-15T17:57:13.936Z,72.76
2023-02-15T17:58:45.979Z,72.99
2023-02-15T18:00:37.125Z,72.93
2023-02-15T18:02:29.784Z,73.08
2023-02-15T18:04:20.738Z,72.93
2023-02-15T18:06:11.420Z,72.94
2023-02-15T18:08:02.051Z,73.28
2023-02-15T18:09:52.682Z,73.59
2023-02-15T18:11:40.396Z,73.68
2023-02-15T18:13:12.370Z,74.22
2023-02-15T18:14:44.443Z,74.19
2023-02-15T18:16:19.882Z,74.17
2023-02-15T18:17:52.118Z,74.33
2023-02-15T18:19:26.091Z,74.35
2023-02-15T18:20:58.067Z,74.45
2023-02-15T18:22:30.308Z,74.63
2023-02-15T18:24:02.436Z,74.59
2023-02-15T18:25:34.606Z,74.77
2023-02-15T18:27:06.878Z,74.78
2023-02-15T18:28:39.058Z,75.02
2023-02-15T18:30:19.754Z,75.28
2023-02-15T18:31:55.843Z,75.18
2023-02-15T18:33:38.119Z,75.44
2023-02-15T18:35:15.890Z,75.80
2023-02-15T18:36:47.954Z,75.89
2023-02-15T18:38:20.104Z,76.08
2023-02-15T18:39:55.991Z,76.25
2023-02-15T18:41:28.246Z,76.67
2023-02-15T18:43:00.386Z,76.66
2023-02-15T18:44:32.500Z,76.95
2023-02-15T18:46:04.816Z,77.19
2023-02-15T18:47:36.940Z,77.11
2023-02-15T18:49:08.983Z,77.49
2023-02-15T18:50:41.188Z,77.56
2023-02-15T18:52:24.764Z,77.48
2023-02-15T18:54:02.386Z,77.63
2023-02-15T18:55:35.892Z,77.77
2023-02-15T18:57:11.373Z,77.67
2023-02-15T18:58:43.386Z,78.12
2023-02-15T19:00:25.483Z,78.10
2023-02-15T19:01:58.223Z,78.31
2023-02-15T19:03:30.831Z,78.14
2023-02-15T19:05:02.850Z,78.11
2023-02-15T19:06:34.816Z,78.26
2023-02-15T19:08:16.207Z,78.01
2023-02-15T19:09:51.162Z,77.88
2023-02-15T19:11:27.255Z,77.89
2023-02-15T19:13:00.546Z,77.80
2023-02-15T19:14:33.624Z,78.00
2023-02-15T19:16:06.665Z,78.01
2023-02-15T19:17:38.865Z,77.95
2023-02-15T19:19:10.938Z,77.95
2023-02-15T19:20:44.868Z,78.05
2023-02-15T19:22:27.532Z,77.89
2023-02-15T19:24:05.681Z,78.23
2023-02-15T19:25:39.949Z,77.97
2023-02-15T19:27:19.649Z,77.98
2023-02-15T19:28:52.035Z,78.23
2023-02-15T19:30:31.624Z,78.17
2023-02-15T19:32:04.420Z,78.12
2023-02-15T19:33:36.495Z,77.72
2023-02-15T19:35:15.210Z,77.56
2023-02-15T19:36:52.490Z,77.31
2023-02-15T19:38:27.420Z,77.58
2023-02-15T19:39:59.547Z,77.93
2023-02-15T19:41:33.612Z,78.03
2023-02-15T19:43:13.670Z,78.30
2023-02-15T19:44:45.662Z,77.85
2023-02-15T19:46:20.328Z,77.52
2023-02-15T19:47:54.331Z,77.64
2023-02-15T19:49:26.478Z,77.89
2023-02-15T19:50:58.862Z,78.10
2023-02-15T19:52:30.924Z,78.25
2023-02-15T19:54:03.417Z,78.38
2023-02-15T19:55:36.488Z,78.61
2023-02-15T19:57:12.142Z,78.79
2023-02-15T19:58:44.186Z,78.64
2023-02-15T20:00:22.459Z,78.71
2023-02-15T20:01:54.861Z,79.05
2023-02-15T20:03:26.942Z,79.29
2023-02-15T20:04:58.992Z,79.29
2023-02-15T20:06:31.078Z,79.51
2023-02-15T20:08:04.628Z,79.74
2023-02-15T20:09:41.002Z,79.65
2023-02-15T20:11:13.813Z,79.84
2023-02-15T20:12:47.580Z,79.90
2023-02-15T20:14:24.170Z,79.95
2023-02-15T20:15:56.237Z,79.93
2023-02-15T20:17:28.287Z,80.10
2023-02-15T20:19:00.438Z,79.94
2023-02-15T20:20:39.161Z,80.10
2023-02-15T20:22:28.202Z,79.85
2023-02-15T20:24:01.586Z,79.76
2023-02-15T20:25:36.566Z,79.88
2023-02-15T20:27:16.390Z,79.85
2023-02-15T20:28:48.888Z,79.93
2023-02-15T20:30:23.539Z,79.83
2023-02-15T20:31:55.889Z,79.61
2023-02-15T20:33:28.135Z,79.47
2023-02-15T20:35:01.741Z,79.57
2023-02-15T20:36:33.849Z,79.69
2023-02-15T20:38:06.134Z,80.09
2023-02-15T20:39:38.202Z,79.96
2023-02-15T20:41:37.205Z,80.16
2023-02-15T20:43:12.834Z,80.25
2023-02-15T20:44:45.023Z,80.46
2023-02-15T20:46:17.063Z,80.27
2023-02-15T20:47:50.400Z,80.31
2023-02-15T20:49:24.517Z,80.19
2023-02-15T20:50:58.896Z,80.04
2023-02-15T20:54:03.320Z,80.12
2023-02-15T20:55:35.437Z,80.33
2023-02-15T20:57:12.336Z,80.44
2023-02-15T20:58:44.393Z,80.59
2023-02-15T21:00:22.383Z,80.39
2023-02-15T21:02:13.710Z,80.55
2023-02-15T21:03:46.388Z,80.55
2023-02-15T21:05:23.564Z,80.79
2023-02-15T21:06:55.985Z,80.69
2023-02-15T21:08:28.301Z,81.05
2023-02-15T21:10:00.682Z,81.21
2023-02-15T21:11:32.889Z,80.80
2023-02-15T21:13:04.938Z,81.00
2023-02-15T21:14:37.039Z,81.03
2023-02-15T21:16:09.774Z,81.05
2023-02-15T21:17:41.854Z,80.92
2023-02-15T21:19:19.309Z,80.87
2023-02-15T21:20:53.737Z,81.09
2023-02-15T21:22:25.696Z,80.98
2023-02-15T21:23:57.831Z,81.00
2023-02-15T21:25:33.772Z,81.18
2023-02-15T21:28:45.331Z,80.78
2023-02-15T21:30:19.451Z,80.92
2023-02-15T21:31:52.221Z,80.87
2023-02-15T21:33:25.054Z,80.87
2023-02-15T21:34:57.099Z,80.91
2023-02-15T21:36:29.132Z,80.77
2023-02-15T21:38:01.107Z,80.73
2023-02-15T21:39:34.916Z,80.74
2023-02-15T21:41:25.522Z,80.89
2023-02-15T21:43:16.728Z,80.95
2023-02-15T21:45:07.369Z,80.90
2023-02-15T21:46:58.052Z,80.93
2023-02-15T21:48:30.164Z,80.92
2023-02-15T21:50:22.086Z,80.92
2023-02-15T21:52:12.133Z,80.70
2023-02-15T21:53:48.758Z,80.69
2023-02-15T21:55:20.769Z,80.86
2023-02-15T21:56:54.323Z,80.92
2023-02-15T21:58:26.990Z,80.72
2023-02-15T21:59:59.045Z,81.29
2023-02-15T22:03:05.811Z,81.56
2023-02-15T22:04:39.420Z,81.65
2023-02-15T22:06:12.098Z,81.46
2023-02-15T22:07:44.326Z,81.52
2023-02-15T22:09:17.970Z,81.71
2023-02-15T22:10:49.869Z,81.49
2023-02-15T22:12:22.615Z,81.52
2023-02-15T22:13:54.699Z,81.18
2023-02-15T22:15:27.943Z,81.07
2023-02-15T22:16:59.922Z,81.11
2023-02-15T22:18:34.070Z,81.08
2023-02-15T22:20:14.369Z,81.09
2023-02-15T22:21:46.419Z,80.93
2023-02-15T22:23:18.534Z,80.92
2023-02-15T22:24:50.559Z,81.10
2023-02-15T22:26:24.866Z,81.11
2023-02-15T22:27:56.880Z,81.28
2023-02-15T22:29:28.932Z,81.25
2023-02-15T22:31:03.552Z,81.43
2023-02-15T22:32:35.824Z,81.49
2023-02-15T22:34:10.154Z,81.43
2023-02-15T22:35:42.153Z,81.03
2023-02-15T22:37:14.352Z,81.08
2023-02-15T22:38:46.512Z,81.18
2023-02-15T22:40:19.535Z,81.21
2023-02-15T22:41:52.731Z,81.31
2023-02-15T22:43:41.782Z,81.04
2023-02-15T22:45:17.590Z,80.84
2023-02-15T22:46:49.868Z,80.73
2023-02-15T22:48:22.754Z,80.56
2023-02-15T22:49:57.741Z,80.67
2023-02-15T22:51:29.980Z,80.90
2023-02-15T22:53:03.584Z,81.16
2023-02-15T22:54:35.349Z,81.17
2023-02-15T22:56:09.444Z,81.23
2023-02-15T22:57:41.845Z,80.99
2023-02-15T22:59:24.788Z,81.07
2023-02-15T23:00:58.243Z,81.27
2023-02-15T23:02:30.456Z,81.65
2023-02-15T23:04:03.996Z,81.68
2023-02-15T23:05:36.212Z,81.73
2023-02-15T23:07:16.852Z,81.64
2023-02-15T23:08:49.037Z,81.93
2023-02-15T23:10:24.388Z,81.91
2023-02-15T23:11:57.546Z,82.23
2023-02-15T23:13:33.716Z,82.19
2023-02-15T23:15:11.463Z,82.02
2023-02-15T23:16:43.620Z,82.35
2023-02-15T23:18:19.750Z,82.33
2023-02-15T23:19:51.738Z,82.30
2023-02-15T23:21:33.518Z,82.30
2023-02-15T23:23:05.603Z,82.48
2023-02-15T23:24:37.643Z,82.35
2023-02-15T23:26:32.982Z,82.42
2023-02-15T23:28:05.712Z,82.67
2023-02-15T23:29:37.618Z,82.69